Terminal Aerodrome Forecast
Issued by NWS Rapid City, SD

Home | Current Version | Previous Version | Text Only | Print | Product List | Glossary On
Versions: 1 2 3 4 5 6 7 8 9 10 11 12
000
FTUS43 KUNR 210523
TAFRAP
TAF
KRAP 210523Z 2106/2206 29007KT P6SM SCT150
     FM210700 36012G18KT P6SM SCT100
     FM211900 05012KT P6SM SCT250=

USA.gov is the U.S. government's official web portal to all federal, state and local government web resources and services.